createdAt,value
2017-06-23T00:00:46.159Z,0
2017-06-23T00:01:46.484Z,0
2017-06-23T00:02:46.453Z,0
2017-06-23T00:03:46.544Z,0
2017-06-23T00:04:46.563Z,0
2017-06-23T00:05:46.287Z,0
2017-06-23T00:06:46.335Z,0
2017-06-23T00:07:46.673Z,0
2017-06-23T00:08:46.696Z,0
2017-06-23T00:09:46.724Z,0
2017-06-23T00:10:46.764Z,0
2017-06-23T00:11:46.808Z,0
2017-06-23T00:12:46.762Z,0
2017-06-23T00:13:46.539Z,0
2017-06-23T00:14:46.891Z,0
2017-06-23T00:15:46.932Z,0
2017-06-23T00:16:46.943Z,0
2017-06-23T00:17:47.271Z,0
2017-06-23T00:18:47.011Z,0
2017-06-23T00:19:46.739Z,0
2017-06-23T00:20:46.752Z,0
2017-06-23T00:21:47.108Z,0
2017-06-23T00:22:47.385Z,0
2017-06-23T00:23:46.838Z,0
2017-06-23T00:24:47.203Z,0
2017-06-23T00:25:47.236Z,0
2017-06-23T00:26:47.258Z,0
2017-06-23T00:27:46.921Z,0
2017-06-23T00:28:46.699Z,0
2017-06-23T00:29:47.040Z,0
2017-06-23T00:30:47.068Z,0
2017-06-23T00:31:46.821Z,0
2017-06-23T00:32:47.417Z,0
2017-06-23T00:33:47.470Z,0
2017-06-23T00:34:47.507Z,0
2017-06-23T00:35:47.233Z,0
2017-06-23T00:36:47.262Z,0
2017-06-23T00:37:47.525Z,0
2017-06-23T00:38:47.623Z,0
2017-06-23T00:39:47.347Z,0
2017-06-23T00:40:47.696Z,0
2017-06-23T00:41:47.404Z,0
2017-06-23T00:42:47.998Z,0
2017-06-23T00:43:47.459Z,0
2017-06-23T00:44:47.524Z,0
2017-06-23T00:45:47.240Z,0
2017-06-23T00:46:46.933Z,0
2017-06-23T00:47:47.887Z,0
2017-06-23T00:48:48.039Z,0
2017-06-23T00:49:47.972Z,0
2017-06-23T00:50:48.009Z,0
2017-06-23T00:51:48.023Z,0
2017-06-23T00:52:48.311Z,0
2017-06-23T00:53:48.095Z,0
2017-06-23T00:54:47.828Z,0
2017-06-23T00:55:47.848Z,0
2017-06-23T00:56:47.886Z,0
2017-06-23T00:57:48.214Z,0
2017-06-23T00:58:47.683Z,0
2017-06-23T00:59:47.967Z,0
2017-06-23T01:00:48.317Z,0
2017-06-23T01:01:48.351Z,0
2017-06-23T01:02:48.681Z,0
2017-06-23T01:03:48.092Z,0
2017-06-23T01:04:48.448Z,0
2017-06-23T01:05:48.471Z,0
2017-06-23T01:06:48.497Z,0
2017-06-23T01:07:48.782Z,0
2017-06-23T01:08:48.568Z,0
2017-06-23T01:09:48.285Z,0
2017-06-23T01:10:48.317Z,0
2017-06-23T01:11:48.334Z,0
2017-06-23T01:12:48.606Z,0
2017-06-23T01:13:48.410Z,0
2017-06-23T01:14:48.750Z,0
2017-06-23T01:15:48.787Z,0
2017-06-23T01:16:48.197Z,0
2017-06-23T01:17:48.211Z,0
2017-06-23T01:18:48.555Z,0
2017-06-23T01:19:48.584Z,0
2017-06-23T01:20:48.930Z,0
2017-06-23T01:21:48.655Z,0
2017-06-23T01:22:49.251Z,0
2017-06-23T01:23:48.724Z,0
2017-06-23T01:24:49.057Z,0
2017-06-23T01:25:48.778Z,0
2017-06-23T01:26:49.127Z,0
2017-06-23T01:27:48.532Z,0
2017-06-23T01:28:49.439Z,0
2017-06-23T01:29:49.213Z,0
2017-06-23T01:30:48.914Z,0
2017-06-23T01:31:49.287Z,0
2017-06-23T01:32:48.988Z,0
2017-06-23T01:33:49.636Z,0
2017-06-23T01:34:49.038Z,0
2017-06-23T01:35:49.078Z,0
2017-06-23T01:36:49.127Z,0
2017-06-23T01:37:48.833Z,0
2017-06-23T01:38:49.800Z,0
2017-06-23T01:39:49.206Z,0
2017-06-23T01:40:49.242Z,0
2017-06-23T01:41:49.273Z,0
2017-06-23T01:42:49.304Z,0
2017-06-23T01:43:49.592Z,0
2017-06-23T01:44:49.382Z,0
2017-06-23T01:45:49.079Z,0
2017-06-23T01:46:49.731Z,0
2017-06-23T01:47:49.770Z,0
2017-06-23T01:48:49.162Z,0
2017-06-23T01:49:49.521Z,0
2017-06-23T01:50:49.855Z,0
2017-06-23T01:51:49.892Z,0
2017-06-23T01:52:49.920Z,0
2017-06-23T01:53:50.265Z,0
2017-06-23T01:54:49.989Z,0
2017-06-23T01:55:49.694Z,0
2017-06-23T01:56:49.776Z,0
2017-06-23T01:57:50.100Z,0
2017-06-23T01:58:50.044Z,0
2017-06-23T01:59:50.142Z,0
2017-06-23T02:00:50.172Z,0
2017-06-23T02:01:49.892Z,0
2017-06-23T02:02:49.620Z,0
2017-06-23T02:03:50.512Z,0
2017-06-23T02:04:49.979Z,0
2017-06-23T02:05:50.356Z,0
2017-06-23T02:06:50.043Z,0
2017-06-23T02:07:50.064Z,0
2017-06-23T02:08:50.662Z,0
2017-06-23T02:09:50.121Z,0
2017-06-23T02:10:49.859Z,0
2017-06-23T02:11:50.513Z,0
2017-06-23T02:12:49.881Z,0
2017-06-23T02:13:50.854Z,0
2017-06-23T02:14:50.279Z,0
2017-06-23T02:15:49.999Z,0
2017-06-23T02:16:50.040Z,0
2017-06-23T02:17:50.372Z,0
2017-06-23T02:18:50.718Z,0
2017-06-23T02:19:50.443Z,0
2017-06-23T02:20:50.476Z,0
2017-06-23T02:21:50.821Z,0
2017-06-23T02:22:50.837Z,0
2017-06-23T02:23:50.522Z,0
2017-06-23T02:24:50.599Z,0
2017-06-23T02:25:50.945Z,0
2017-06-23T02:26:50.954Z,0
2017-06-23T02:27:50.693Z,0
2017-06-23T02:28:50.982Z,0
2017-06-23T02:29:51.062Z,0
2017-06-23T02:30:51.099Z,0
2017-06-23T02:31:51.128Z,0
2017-06-23T02:32:51.152Z,0
2017-06-23T02:33:51.178Z,0
2017-06-23T02:34:51.214Z,0
2017-06-23T02:35:51.255Z,0
2017-06-23T02:36:51.277Z,0
2017-06-23T02:37:51.009Z,0
2017-06-23T02:38:51.279Z,0
2017-06-23T02:39:50.751Z,0
2017-06-23T02:40:51.399Z,0
2017-06-23T02:41:51.128Z,0
2017-06-23T02:42:51.157Z,0
2017-06-23T02:43:51.739Z,0
2017-06-23T02:44:51.221Z,0
2017-06-23T02:45:51.233Z,0
2017-06-23T02:46:51.285Z,0
2017-06-23T02:47:51.291Z,0
2017-06-23T02:48:51.948Z,0
2017-06-23T02:49:51.687Z,0
2017-06-23T02:50:51.393Z,0
2017-06-23T02:51:51.433Z,0
2017-06-23T02:52:51.765Z,0
2017-06-23T02:53:52.102Z,0
2017-06-23T02:54:51.211Z,0
2017-06-23T02:55:51.548Z,0
2017-06-23T02:56:51.879Z,0
2017-06-23T02:57:51.298Z,0
2017-06-23T02:58:51.899Z,0
2017-06-23T02:59:51.989Z,0
2017-06-23T03:00:52.015Z,0
2017-06-23T03:01:51.750Z,0
2017-06-23T03:02:51.459Z,0
2017-06-23T03:03:52.090Z,0
2017-06-23T03:04:52.143Z,0
2017-06-23T03:05:52.174Z,0
2017-06-23T03:06:52.193Z,0
2017-06-23T03:07:51.911Z,0
2017-06-23T03:08:52.521Z,0
2017-06-23T03:09:52.291Z,0
2017-06-23T03:10:52.004Z,0
2017-06-23T03:11:51.750Z,0
2017-06-23T03:12:52.062Z,0
2017-06-23T03:13:52.399Z,0
2017-06-23T03:14:52.134Z,0
2017-06-23T03:15:52.164Z,0
2017-06-23T03:16:52.497Z,0
2017-06-23T03:17:52.209Z,0
2017-06-23T03:18:52.547Z,0
2017-06-23T03:19:52.596Z,0
2017-06-23T03:20:52.305Z,0
2017-06-23T03:21:52.030Z,0
2017-06-23T03:22:52.378Z,0
2017-06-23T03:23:52.664Z,0
2017-06-23T03:24:52.477Z,0
2017-06-23T03:25:52.477Z,0
2017-06-23T03:26:51.870Z,0
2017-06-23T03:27:52.531Z,0
2017-06-23T03:28:53.136Z,0
2017-06-23T03:29:52.905Z,0
2017-06-23T03:30:52.638Z,0
2017-06-23T03:31:52.968Z,0
2017-06-23T03:32:52.687Z,0
2017-06-23T03:33:52.964Z,0
2017-06-23T03:34:52.744Z,0
2017-06-23T03:35:53.077Z,0
2017-06-23T03:36:53.139Z,0
2017-06-23T03:37:53.152Z,0
2017-06-23T03:38:52.557Z,0
2017-06-23T03:39:53.458Z,0
2017-06-23T03:40:53.241Z,0
2017-06-23T03:41:53.264Z,0
2017-06-23T03:42:53.307Z,0
2017-06-23T03:43:53.336Z,0
2017-06-23T03:44:53.305Z,0
2017-06-23T03:45:53.075Z,0
2017-06-23T03:46:53.114Z,0
2017-06-23T03:47:53.153Z,0
2017-06-23T03:48:53.166Z,0
2017-06-23T03:49:53.773Z,0
2017-06-23T03:50:52.908Z,0
2017-06-23T03:51:53.267Z,0
2017-06-23T03:52:53.615Z,0
2017-06-23T03:53:53.640Z,0
2017-06-23T03:54:53.922Z,0
2017-06-23T03:55:53.376Z,0
2017-06-23T03:56:53.425Z,0
2017-06-23T03:57:53.455Z,0
2017-06-23T03:58:53.792Z,0
2017-06-23T03:59:54.121Z,0
2017-06-23T04:00:53.551Z,0
2017-06-23T04:01:53.251Z,0
2017-06-23T04:02:53.909Z,0
2017-06-23T04:03:53.940Z,0
2017-06-23T04:04:54.262Z,0
2017-06-23T04:05:53.999Z,0
2017-06-23T04:06:53.724Z,0
2017-06-23T04:07:53.764Z,0
2017-06-23T04:08:54.097Z,0
2017-06-23T04:09:54.101Z,0
2017-06-23T04:10:53.839Z,0
2017-06-23T04:11:53.873Z,0
2017-06-23T04:12:54.223Z,0
2017-06-23T04:13:53.937Z,0
2017-06-23T04:14:54.207Z,0
2017-06-23T04:15:54.328Z,0
2017-06-23T04:16:53.711Z,0
2017-06-23T04:17:54.367Z,0
2017-06-23T04:18:54.405Z,0
2017-06-23T04:19:54.359Z,0
2017-06-23T04:20:54.460Z,0
2017-06-23T04:21:54.168Z,0
2017-06-23T04:22:54.515Z,0
2017-06-23T04:23:54.549Z,0
2017-06-23T04:24:54.878Z,0
2017-06-23T04:25:53.983Z,0
2017-06-23T04:26:53.692Z,0
2017-06-23T04:27:54.680Z,0
2017-06-23T04:28:54.089Z,0
2017-06-23T04:29:54.685Z,0
2017-06-23T04:30:53.835Z,0
2017-06-23T04:31:54.476Z,0
2017-06-23T04:32:54.816Z,0
2017-06-23T04:33:54.229Z,0
2017-06-23T04:34:54.878Z,0
2017-06-23T04:35:54.279Z,0
2017-06-23T04:36:54.940Z,0
2017-06-23T04:37:54.349Z,0
2017-06-23T04:38:55.008Z,0
2017-06-23T04:39:55.026Z,0
2017-06-23T04:40:54.756Z,0
2017-06-23T04:41:55.104Z,0
2017-06-23T04:42:54.813Z,0
2017-06-23T04:43:55.154Z,0
2017-06-23T04:44:55.438Z,0
2017-06-23T04:45:55.219Z,0
2017-06-23T04:46:54.937Z,0
2017-06-23T04:47:55.280Z,0
2017-06-23T04:48:55.317Z,0
2017-06-23T04:49:55.591Z,0
2017-06-23T04:50:55.420Z,0
2017-06-23T04:51:55.088Z,0
2017-06-23T04:52:55.441Z,0
2017-06-23T04:53:55.475Z,0
2017-06-23T04:54:55.491Z,0
2017-06-23T04:55:55.521Z,5
2017-06-23T04:56:55.236Z,5
2017-06-23T04:57:54.966Z,5
2017-06-23T04:58:55.614Z,5
2017-06-23T04:59:55.589Z,5
2017-06-23T05:00:55.652Z,5
2017-06-23T05:01:55.705Z,5
2017-06-23T05:02:55.737Z,5
2017-06-23T05:03:55.191Z,5
2017-06-23T05:04:55.735Z,5
2017-06-23T05:05:55.820Z,5
2017-06-23T05:06:55.860Z,5
2017-06-23T05:07:55.582Z,5
2017-06-23T05:08:55.619Z,5
2017-06-23T05:09:55.886Z,5
2017-06-23T05:10:55.662Z,5
2017-06-23T05:11:56.009Z,0
2017-06-23T05:12:55.734Z,0
2017-06-23T05:13:55.758Z,5
2017-06-23T05:14:56.047Z,5
2017-06-23T05:15:56.128Z,5
2017-06-23T05:16:55.538Z,5
2017-06-23T05:17:55.567Z,5
2017-06-23T05:18:55.914Z,5
2017-06-23T05:19:56.188Z,5
2017-06-23T05:20:55.961Z,5
2017-06-23T05:21:56.005Z,5
2017-06-23T05:22:56.035Z,5
2017-06-23T05:23:56.386Z,5
2017-06-23T05:24:56.036Z,5
2017-06-23T05:25:56.449Z,5
2017-06-23T05:26:55.854Z,5
2017-06-23T05:27:55.865Z,5
2017-06-23T05:28:56.519Z,5
2017-06-23T05:29:56.868Z,5
2017-06-23T05:30:56.593Z,5
2017-06-23T05:31:55.989Z,5
2017-06-23T05:32:56.638Z,5
2017-06-23T05:33:56.376Z,5
2017-06-23T05:34:56.344Z,5
2017-06-23T05:35:56.420Z,5
2017-06-23T05:36:56.446Z,5
2017-06-23T05:37:56.795Z,5
2017-06-23T05:38:56.519Z,5
2017-06-23T05:39:56.791Z,5
2017-06-23T05:40:56.571Z,5
2017-06-23T05:41:56.294Z,5
2017-06-23T05:42:56.330Z,5
2017-06-23T05:43:56.677Z,5
2017-06-23T05:44:57.292Z,5
2017-06-23T05:45:57.061Z,5
2017-06-23T05:46:57.066Z,5
2017-06-23T05:47:56.486Z,5
2017-06-23T05:48:56.816Z,5
2017-06-23T05:49:57.112Z,5
2017-06-23T05:50:57.193Z,5
2017-06-23T05:51:56.593Z,5
2017-06-23T05:52:56.966Z,5
2017-06-23T05:53:56.964Z,5
2017-06-23T05:54:56.932Z,5
2017-06-23T05:55:57.034Z,5
2017-06-23T05:56:57.374Z,5
2017-06-23T05:57:57.407Z,5
2017-06-23T05:58:56.801Z,5
2017-06-23T05:59:57.713Z,5
2017-06-23T06:00:57.180Z,5
2017-06-23T06:01:57.527Z,5
2017-06-23T06:02:56.934Z,5
2017-06-23T06:03:57.601Z,5
2017-06-23T06:04:57.292Z,5
2017-06-23T06:05:57.337Z,5
2017-06-23T06:06:57.370Z,5
2017-06-23T06:07:57.074Z,5
2017-06-23T06:08:57.740Z,5
2017-06-23T06:09:57.761Z,5
2017-06-23T06:10:57.474Z,5
2017-06-23T06:11:57.834Z,5
2017-06-23T06:12:57.856Z,10
2017-06-23T06:13:57.885Z,10
2017-06-23T06:14:57.592Z,10
2017-06-23T06:15:57.643Z,10
2017-06-23T06:16:57.967Z,10
2017-06-23T06:17:57.692Z,10
2017-06-23T06:18:57.732Z,10
2017-06-23T06:19:58.320Z,10
2017-06-23T06:20:57.795Z,10
2017-06-23T06:21:57.823Z,10
2017-06-23T06:22:58.168Z,10
2017-06-23T06:23:57.885Z,10
2017-06-23T06:24:58.155Z,10
2017-06-23T06:25:58.249Z,10
2017-06-23T06:26:57.778Z,10
2017-06-23T06:27:57.695Z,10
2017-06-23T06:28:58.021Z,10
2017-06-23T06:29:58.296Z,10
2017-06-23T06:30:58.094Z,10
2017-06-23T06:31:58.126Z,10
2017-06-23T06:32:58.167Z,10
2017-06-23T06:33:57.864Z,10
2017-06-23T06:34:58.776Z,10
2017-06-23T06:35:58.259Z,10
2017-06-23T06:36:58.579Z,10
2017-06-23T06:37:58.617Z,10
2017-06-23T06:38:58.340Z,10
2017-06-23T06:39:58.926Z,10
2017-06-23T06:40:58.086Z,10
2017-06-23T06:41:58.115Z,10
2017-06-23T06:42:58.452Z,10
2017-06-23T06:43:58.489Z,10
2017-06-23T06:44:58.510Z,10
2017-06-23T06:45:58.859Z,10
2017-06-23T06:46:58.577Z,10
2017-06-23T06:47:58.608Z,10
2017-06-23T06:48:58.629Z,10
2017-06-23T06:49:58.667Z,10
2017-06-23T06:50:59.265Z,10
2017-06-23T06:51:58.727Z,10
2017-06-23T06:52:59.136Z,10
2017-06-23T06:53:59.097Z,10
2017-06-23T06:54:59.145Z,10
2017-06-23T06:55:58.802Z,15
2017-06-23T06:56:58.880Z,15
2017-06-23T06:57:59.224Z,15
2017-06-23T06:58:58.946Z,15
2017-06-23T06:59:58.670Z,15
2017-06-23T07:00:58.671Z,15
2017-06-23T07:01:59.048Z,15
2017-06-23T07:02:59.068Z,15
2017-06-23T07:03:59.405Z,15
2017-06-23T07:04:59.113Z,15
2017-06-23T07:05:59.099Z,15
2017-06-23T07:06:59.192Z,15
2017-06-23T07:07:59.537Z,15
2017-06-23T07:08:58.929Z,15
2017-06-23T07:09:59.278Z,15
2017-06-23T07:10:59.551Z,15
2017-06-23T07:11:59.647Z,15
2017-06-23T07:12:59.676Z,15
2017-06-23T07:13:59.713Z,15
2017-06-23T07:14:59.414Z,15
2017-06-23T07:15:59.395Z,15
2017-06-23T07:16:59.480Z,15
2017-06-23T07:17:59.512Z,15
2017-06-23T07:18:59.242Z,15
2017-06-23T07:19:59.265Z,15
2017-06-23T07:21:00.224Z,15
2017-06-23T07:21:59.337Z,15
2017-06-23T07:22:59.678Z,15
2017-06-23T07:23:59.701Z,15
2017-06-23T07:25:00.034Z,15
2017-06-23T07:26:00.336Z,15
2017-06-23T07:26:59.791Z,15
2017-06-23T07:27:59.817Z,15
2017-06-23T07:29:00.173Z,15
2017-06-23T07:29:59.866Z,15
2017-06-23T07:31:00.532Z,20
2017-06-23T07:31:59.936Z,20
2017-06-23T07:32:59.981Z,15
2017-06-23T07:34:00.090Z,15
2017-06-23T07:34:59.720Z,20
2017-06-23T07:36:00.349Z,15
2017-06-23T07:37:00.445Z,15
2017-06-23T07:37:59.869Z,15
2017-06-23T07:39:00.143Z,15
2017-06-23T07:40:00.192Z,15
2017-06-23T07:41:00.829Z,20
2017-06-23T07:42:00.253Z,20
2017-06-23T07:43:00.289Z,20
2017-06-23T07:44:00.318Z,20
2017-06-23T07:45:00.038Z,15
2017-06-23T07:46:00.312Z,20
2017-06-23T07:47:00.409Z,20
2017-06-23T07:48:00.425Z,20
2017-06-23T07:49:00.147Z,15
2017-06-23T07:50:00.488Z,15
2017-06-23T07:51:00.455Z,20
2017-06-23T07:52:00.861Z,20
2017-06-23T07:53:00.577Z,20
2017-06-23T07:54:00.300Z,20
2017-06-23T07:55:00.329Z,20
2017-06-23T07:56:00.604Z,20
2017-06-23T07:57:01.045Z,15
2017-06-23T07:58:00.398Z,15
2017-06-23T07:59:01.072Z,15
2017-06-23T08:00:00.816Z,15
2017-06-23T08:01:01.061Z,15
2017-06-23T08:02:01.160Z,15
2017-06-23T08:03:00.887Z,20
2017-06-23T08:04:00.915Z,20
2017-06-23T08:05:01.246Z,15
2017-06-23T08:06:01.213Z,15
2017-06-23T08:07:01.320Z,15
2017-06-23T08:08:00.722Z,15
2017-06-23T08:09:01.372Z,15
2017-06-23T08:10:01.420Z,15
2017-06-23T08:11:01.728Z,15
2017-06-23T08:12:01.169Z,15
2017-06-23T08:13:01.510Z,15
2017-06-23T08:14:00.902Z,15
2017-06-23T08:15:00.615Z,15
2017-06-23T08:16:01.528Z,15
2017-06-23T08:17:01.301Z,15
2017-06-23T08:18:01.654Z,15
2017-06-23T08:19:01.680Z,15
2017-06-23T08:20:01.089Z,15
2017-06-23T08:21:01.692Z,15
2017-06-23T08:22:01.467Z,15
2017-06-23T08:23:01.495Z,15
2017-06-23T08:24:01.524Z,15
2017-06-23T08:25:01.866Z,15
2017-06-23T08:26:01.877Z,15
2017-06-23T08:27:01.922Z,15
2017-06-23T08:28:01.969Z,20
2017-06-23T08:29:01.972Z,20
2017-06-23T08:30:02.038Z,20
2017-06-23T08:31:01.369Z,20
2017-06-23T08:32:01.770Z,20
2017-06-23T08:33:01.479Z,20
2017-06-23T08:34:02.152Z,20
2017-06-23T08:35:01.861Z,20
2017-06-23T08:36:02.140Z,20
2017-06-23T08:37:01.910Z,20
2017-06-23T08:38:01.623Z,20
2017-06-23T08:39:01.976Z,20
2017-06-23T08:40:02.000Z,20
2017-06-23T08:41:01.713Z,20
2017-06-23T08:42:02.063Z,20
2017-06-23T08:43:02.415Z,20
2017-06-23T08:44:02.455Z,20
2017-06-23T08:45:02.156Z,20
2017-06-23T08:46:02.754Z,20
2017-06-23T08:47:02.535Z,20
2017-06-23T08:48:02.571Z,25
2017-06-23T08:49:02.597Z,20
2017-06-23T08:50:02.624Z,20
2017-06-23T08:51:02.972Z,20
2017-06-23T08:52:02.380Z,20
2017-06-23T08:53:02.399Z,20
2017-06-23T08:54:02.444Z,20
2017-06-23T08:55:02.453Z,20
2017-06-23T08:56:03.113Z,20
2017-06-23T08:57:02.536Z,20
2017-06-23T08:58:02.555Z,20
2017-06-23T08:59:02.903Z,20
2017-06-23T09:00:02.616Z,20
2017-06-23T09:01:02.952Z,20
2017-06-23T09:02:02.671Z,20
2017-06-23T09:03:02.701Z,20
2017-06-23T09:04:02.420Z,20
2017-06-23T09:05:02.777Z,20
2017-06-23T09:06:02.497Z,20
2017-06-23T09:07:02.827Z,20
2017-06-23T09:08:02.871Z,20
2017-06-23T09:09:02.578Z,20
2017-06-23T09:10:02.913Z,20
2017-06-23T09:11:03.276Z,20
2017-06-23T09:12:02.930Z,20
2017-06-23T09:13:03.324Z,20
2017-06-23T09:14:03.036Z,20
2017-06-23T09:15:02.452Z,20
2017-06-23T09:16:03.098Z,20
2017-06-23T09:17:03.123Z,20
2017-06-23T09:18:03.481Z,20
2017-06-23T09:19:02.881Z,20
2017-06-23T09:20:03.234Z,20
2017-06-23T09:21:03.254Z,20
2017-06-23T09:22:03.543Z,20
2017-06-23T09:23:03.000Z,20
2017-06-23T09:24:03.353Z,20
2017-06-23T09:25:03.373Z,20
2017-06-23T09:26:03.094Z,20
2017-06-23T09:27:03.741Z,20
2017-06-23T09:28:03.469Z,20
2017-06-23T09:29:03.818Z,20
2017-06-23T09:30:03.831Z,20
2017-06-23T09:31:03.871Z,20
2017-06-23T09:32:03.527Z,20
2017-06-23T09:33:03.926Z,20
2017-06-23T09:34:03.961Z,20
2017-06-23T09:35:03.994Z,20
2017-06-23T09:36:04.028Z,20
2017-06-23T09:37:03.418Z,20
2017-06-23T09:38:04.085Z,20
2017-06-23T09:39:03.805Z,20
2017-06-23T09:40:03.839Z,20
2017-06-23T09:41:04.187Z,20
2017-06-23T09:42:04.165Z,20
2017-06-23T09:43:03.629Z,20
2017-06-23T09:44:03.649Z,20
2017-06-23T09:45:03.982Z,20
2017-06-23T09:46:04.328Z,20
2017-06-23T09:47:03.988Z,20
2017-06-23T09:48:04.377Z,20
2017-06-23T09:49:03.805Z,20
2017-06-23T09:50:03.832Z,20
2017-06-23T09:51:04.168Z,20
2017-06-23T09:52:04.484Z,20
2017-06-23T09:53:04.236Z,20
2017-06-23T09:54:04.581Z,25
2017-06-23T09:55:04.602Z,25
2017-06-23T09:56:04.639Z,25
2017-06-23T09:57:04.925Z,20
2017-06-23T09:58:04.396Z,20
2017-06-23T09:59:04.726Z,20
2017-06-23T10:00:04.754Z,20
2017-06-23T10:01:04.472Z,20
2017-06-23T10:02:04.491Z,20
2017-06-23T10:03:04.541Z,20
2017-06-23T10:04:04.574Z,25
2017-06-23T10:05:04.599Z,25
2017-06-23T10:06:04.316Z,25
2017-06-23T10:07:04.661Z,25
2017-06-23T10:08:04.381Z,25
2017-06-23T10:09:04.413Z,25
2017-06-23T10:10:04.758Z,25
2017-06-23T10:11:05.111Z,25
2017-06-23T10:12:05.069Z,25
2017-06-23T10:13:04.845Z,25
2017-06-23T10:14:04.567Z,25
2017-06-23T10:15:05.215Z,25
2017-06-23T10:16:04.931Z,25
2017-06-23T10:17:05.533Z,25
2017-06-23T10:18:04.698Z,25
2017-06-23T10:19:05.035Z,25
2017-06-23T10:20:05.371Z,25
2017-06-23T10:21:04.803Z,25
2017-06-23T10:22:05.389Z,25
2017-06-23T10:23:05.159Z,25
2017-06-23T10:24:05.194Z,25
2017-06-23T10:25:05.531Z,25
2017-06-23T10:26:05.244Z,25
2017-06-23T10:27:05.884Z,25
2017-06-23T10:28:05.630Z,25
2017-06-23T10:29:05.338Z,25
2017-06-23T10:30:05.055Z,25
2017-06-23T10:31:05.399Z,25
2017-06-23T10:32:05.668Z,25
2017-06-23T10:33:05.462Z,25
2017-06-23T10:34:05.488Z,30
2017-06-23T10:35:05.204Z,30
2017-06-23T10:36:05.233Z,30
2017-06-23T10:37:05.533Z,30
2017-06-23T10:38:05.933Z,35
2017-06-23T10:39:05.952Z,30
2017-06-23T10:40:05.679Z,30
2017-06-23T10:41:05.717Z,30
2017-06-23T10:42:05.720Z,25
2017-06-23T10:43:06.087Z,30
2017-06-23T10:44:06.087Z,30
2017-06-23T10:45:06.138Z,30
2017-06-23T10:46:05.877Z,30
2017-06-23T10:47:06.145Z,30
2017-06-23T10:48:05.919Z,30
2017-06-23T10:49:06.259Z,30
2017-06-23T10:50:06.317Z,30
2017-06-23T10:51:06.028Z,30
2017-06-23T10:52:06.287Z,30
2017-06-23T10:53:06.382Z,30
2017-06-23T10:54:06.103Z,30
2017-06-23T10:55:06.455Z,30
2017-06-23T10:56:06.489Z,30
2017-06-23T10:57:06.813Z,30
2017-06-23T10:58:05.923Z,30
2017-06-23T10:59:06.247Z,30
2017-06-23T11:00:06.296Z,30
2017-06-23T11:01:06.325Z,30
2017-06-23T11:02:06.346Z,30
2017-06-23T11:03:06.687Z,30
2017-06-23T11:04:06.719Z,30
2017-06-23T11:05:06.750Z,30
2017-06-23T11:06:06.783Z,30
2017-06-23T11:07:06.205Z,30
2017-06-23T11:08:07.146Z,30
2017-06-23T11:09:06.879Z,30
2017-06-23T11:10:06.608Z,30
2017-06-23T11:11:06.943Z,30
2017-06-23T11:12:06.658Z,30
2017-06-23T11:13:07.244Z,30
2017-06-23T11:14:06.095Z,30
2017-06-23T11:15:06.440Z,35
2017-06-23T11:16:06.170Z,35
2017-06-23T11:17:06.511Z,35
2017-06-23T11:18:07.413Z,35
2017-06-23T11:19:07.196Z,35
2017-06-23T11:20:06.912Z,40
2017-06-23T11:21:07.280Z,40
2017-06-23T11:22:07.286Z,45
2017-06-23T11:23:07.308Z,45
2017-06-23T11:24:07.032Z,50
2017-06-23T11:25:07.374Z,55
2017-06-23T11:26:07.105Z,60
2017-06-23T11:27:07.442Z,60
2017-06-23T11:28:07.136Z,65
2017-06-23T11:29:07.184Z,75
2017-06-23T11:30:07.524Z,90
2017-06-23T11:31:07.570Z,260
2017-06-23T11:32:07.598Z,530
2017-06-23T11:33:07.572Z,550
2017-06-23T11:34:07.057Z,465
2017-06-23T11:35:06.741Z,400
2017-06-23T11:36:07.727Z,425
2017-06-23T11:37:07.755Z,440
2017-06-23T11:38:08.044Z,440
2017-06-23T11:39:07.197Z,480
2017-06-23T11:40:07.841Z,445
2017-06-23T11:41:07.878Z,450
2017-06-23T11:42:07.591Z,515
2017-06-23T11:43:08.180Z,540
2017-06-23T11:44:07.972Z,500
2017-06-23T11:45:07.361Z,600
2017-06-23T11:46:08.043Z,720
2017-06-23T11:47:07.756Z,745
2017-06-23T11:48:08.348Z,855
2017-06-23T11:49:08.120Z,795
2017-06-23T11:50:08.157Z,845
2017-06-23T11:51:07.883Z,880
2017-06-23T11:52:07.308Z,1000
2017-06-23T11:53:08.495Z,1220
2017-06-23T11:54:08.302Z,1220
2017-06-23T11:55:08.010Z,1250
2017-06-23T11:56:07.746Z,1340
2017-06-23T11:57:08.083Z,1375
2017-06-23T11:58:08.365Z,1170
2017-06-23T11:59:07.856Z,1000
2017-06-23T12:00:08.505Z,1055
2017-06-23T12:01:08.534Z,905
2017-06-23T12:02:08.247Z,840
2017-06-23T12:03:08.840Z,775
2017-06-23T12:04:08.005Z,700
2017-06-23T12:05:08.674Z,625
2017-06-23T12:06:08.374Z,645
2017-06-23T12:07:08.424Z,700
2017-06-23T12:08:09.016Z,610
2017-06-23T12:09:08.173Z,595
2017-06-23T12:10:08.518Z,695
2017-06-23T12:11:08.574Z,740
2017-06-23T12:12:08.904Z,735
2017-06-23T12:13:08.617Z,775
2017-06-23T12:14:08.986Z,720
2017-06-23T12:15:08.700Z,760
2017-06-23T12:16:08.738Z,800
2017-06-23T12:17:09.068Z,805
2017-06-23T12:18:09.130Z,655
2017-06-23T12:19:08.853Z,570
2017-06-23T12:20:09.190Z,570
2017-06-23T12:21:09.223Z,705
2017-06-23T12:22:09.261Z,840
2017-06-23T12:23:09.591Z,675
2017-06-23T12:24:09.008Z,575
2017-06-23T12:25:08.743Z,545
2017-06-23T12:26:09.403Z,730
2017-06-23T12:27:08.828Z,855
2017-06-23T12:28:09.740Z,815
2017-06-23T12:29:08.894Z,800
2017-06-23T12:30:09.550Z,775
2017-06-23T12:31:08.971Z,765
2017-06-23T12:32:09.605Z,865
2017-06-23T12:33:09.961Z,905
2017-06-23T12:34:09.373Z,900
2017-06-23T12:35:09.739Z,1125
2017-06-23T12:36:09.762Z,1185
2017-06-23T12:37:09.184Z,1150
2017-06-23T12:38:09.169Z,1020
2017-06-23T12:39:09.874Z,1040
2017-06-23T12:40:09.599Z,1170
2017-06-23T12:41:09.952Z,1115
2017-06-23T12:42:09.976Z,1090
2017-06-23T12:43:10.277Z,965
2017-06-23T12:44:09.749Z,935
2017-06-23T12:45:10.091Z,985
2017-06-23T12:46:09.823Z,1015
2017-06-23T12:47:10.180Z,1035
2017-06-23T12:48:10.501Z,1010
2017-06-23T12:49:10.242Z,990
2017-06-23T12:50:10.284Z,1010
2017-06-23T12:51:09.992Z,1070
2017-06-23T12:52:09.743Z,1130
2017-06-23T12:53:10.332Z,1020
2017-06-23T12:54:10.422Z,1130
2017-06-23T12:55:10.149Z,1120
2017-06-23T12:56:10.197Z,985
2017-06-23T12:57:10.541Z,970
2017-06-23T12:58:10.517Z,975
2017-06-23T12:59:10.306Z,1040
2017-06-23T13:00:10.324Z,1040
2017-06-23T13:01:10.368Z,1020
2017-06-23T13:02:10.128Z,1070
2017-06-23T13:03:11.066Z,1235
2017-06-23T13:04:10.798Z,1030
2017-06-23T13:05:10.524Z,755
2017-06-23T13:06:10.548Z,635
2017-06-23T13:07:10.900Z,425
2017-06-23T13:08:11.245Z,285
2017-06-23T13:09:10.987Z,245
2017-06-23T13:10:10.700Z,230
2017-06-23T13:11:10.737Z,225
2017-06-23T13:12:10.773Z,220
2017-06-23T13:13:11.065Z,210
2017-06-23T13:14:10.854Z,205
2017-06-23T13:15:11.196Z,200
2017-06-23T13:16:11.241Z,195
2017-06-23T13:17:11.286Z,190
2017-06-23T13:18:11.557Z,185
2017-06-23T13:19:11.339Z,180
2017-06-23T13:20:11.084Z,175
2017-06-23T13:21:11.124Z,175
2017-06-23T13:22:11.141Z,175
2017-06-23T13:23:11.794Z,175
2017-06-23T13:24:11.227Z,170
2017-06-23T13:25:11.580Z,170
2017-06-23T13:26:11.302Z,175
2017-06-23T13:27:11.001Z,170
2017-06-23T13:28:11.079Z,165
2017-06-23T13:29:12.019Z,165
2017-06-23T13:30:11.765Z,160
2017-06-23T13:31:11.782Z,155
2017-06-23T13:32:11.819Z,145
2017-06-23T13:33:11.550Z,140
2017-06-23T13:34:11.835Z,140
2017-06-23T13:35:11.939Z,135
2017-06-23T13:36:11.981Z,135
2017-06-23T13:37:11.698Z,135
2017-06-23T13:38:11.731Z,130
2017-06-23T13:39:12.346Z,130
2017-06-23T13:40:12.114Z,125
2017-06-23T13:41:12.154Z,125
2017-06-23T13:42:11.884Z,125
2017-06-23T13:43:12.234Z,125
2017-06-23T13:44:12.511Z,120
2017-06-23T13:45:11.669Z,120
2017-06-23T13:46:12.026Z,120
2017-06-23T13:47:11.734Z,120
2017-06-23T13:48:11.778Z,115
2017-06-23T13:49:12.389Z,115
2017-06-23T13:50:12.170Z,115
2017-06-23T13:51:12.519Z,115
2017-06-23T13:52:12.551Z,115
2017-06-23T13:53:12.280Z,110
2017-06-23T13:54:12.256Z,110
2017-06-23T13:55:12.054Z,110
2017-06-23T13:56:12.689Z,110
2017-06-23T13:57:12.722Z,110
2017-06-23T13:58:12.772Z,105
2017-06-23T13:59:12.416Z,105
2017-06-23T14:00:12.537Z,105
2017-06-23T14:01:12.561Z,100
2017-06-23T14:02:12.919Z,100
2017-06-23T14:03:12.639Z,100
2017-06-23T14:04:13.231Z,95
2017-06-23T14:05:13.008Z,95
2017-06-23T14:06:13.073Z,95
2017-06-23T14:07:12.460Z,95
2017-06-23T14:08:13.127Z,95
2017-06-23T14:09:13.461Z,95
2017-06-23T14:10:13.194Z,95
2017-06-23T14:11:12.921Z,95
2017-06-23T14:12:13.281Z,95
2017-06-23T14:13:12.371Z,95
2017-06-23T14:14:13.277Z,90
2017-06-23T14:15:13.065Z,90
2017-06-23T14:16:13.423Z,90
2017-06-23T14:17:13.140Z,90
2017-06-23T14:18:12.858Z,90
2017-06-23T14:19:13.751Z,90
2017-06-23T14:20:13.240Z,90
2017-06-23T14:21:12.965Z,90
2017-06-23T14:22:13.632Z,90
2017-06-23T14:23:13.660Z,90